createdAt,value
2018-11-26T00:02:30.343Z,95.18
2018-11-26T00:07:39.453Z,94.61
2018-11-26T00:12:48.321Z,94.75
2018-11-26T00:17:57.269Z,95.43
2018-11-26T00:23:06.666Z,96.81
2018-11-26T00:28:15.638Z,98.19
2018-11-26T00:33:24.404Z,98.31
2018-11-26T00:38:33.157Z,98.12
2018-11-26T00:43:41.931Z,97.50
2018-11-26T00:48:50.775Z,97.20
2018-11-26T00:53:59.671Z,95.71
2018-11-26T00:59:08.440Z,94.46
2018-11-26T01:04:17.349Z,94.08
2018-11-26T01:09:26.166Z,92.36
2018-11-26T01:14:34.961Z,92.92
2018-11-26T01:19:43.828Z,91.72
2018-11-26T01:24:52.551Z,92.76
2018-11-26T01:30:01.339Z,92.61
2018-11-26T01:35:10.558Z,92.99
2018-11-26T01:40:24.066Z,92.56
2018-11-26T01:45:32.853Z,93.10
2018-11-26T01:50:41.544Z,93.06
2018-11-26T01:55:50.378Z,93.53
2018-11-26T02:00:59.190Z,94.13
2018-11-26T02:06:08.322Z,94.88
2018-11-26T02:11:17.206Z,96.06
2018-11-26T02:16:26.013Z,97.16
2018-11-26T02:21:34.925Z,97.48
2018-11-26T02:26:43.696Z,97.27
2018-11-26T02:31:52.617Z,97.83
2018-11-26T02:37:01.522Z,99.50
2018-11-26T02:42:10.298Z,100.00
2018-11-26T02:47:19.046Z,100.00
2018-11-26T02:52:29.397Z,100.00
2018-11-26T02:57:38.172Z,100.00
2018-11-26T03:02:47.078Z,100.00
2018-11-26T03:07:55.980Z,100.00
2018-11-26T03:13:05.250Z,100.00
2018-11-26T03:18:14.041Z,100.00
2018-11-26T03:23:22.785Z,98.33
2018-11-26T03:28:31.640Z,97.49
2018-11-26T03:33:40.507Z,97.36
2018-11-26T03:38:51.492Z,97.12
2018-11-26T03:44:00.678Z,97.22
2018-11-26T03:49:09.451Z,97.63
2018-11-26T03:54:18.446Z,97.50
2018-11-26T03:59:27.109Z,97.22
2018-11-26T04:04:35.848Z,97.91
2018-11-26T04:09:45.493Z,97.36
2018-11-26T04:14:54.705Z,98.57
2018-11-26T04:20:03.401Z,98.35
2018-11-26T04:25:12.384Z,98.37
2018-11-26T04:30:21.338Z,97.39
2018-11-26T04:35:30.308Z,97.53
2018-11-26T04:40:39.097Z,97.21
2018-11-26T04:45:48.125Z,97.47
2018-11-26T04:50:56.997Z,97.69
2018-11-26T04:56:05.913Z,97.76
2018-11-26T05:01:14.653Z,98.54
2018-11-26T05:06:24.006Z,98.39
2018-11-26T05:11:33.059Z,98.34
2018-11-26T05:16:42.237Z,98.09
2018-11-26T05:21:51.068Z,98.12
2018-11-26T05:26:59.807Z,97.51
2018-11-26T05:32:09.514Z,97.35
2018-11-26T05:37:18.098Z,97.71
2018-11-26T05:42:28.845Z,96.89
2018-11-26T05:47:35.893Z,96.52
2018-11-26T05:52:44.628Z,95.82
2018-11-26T05:57:59.599Z,96.20
2018-11-26T06:03:08.220Z,96.14
2018-11-26T06:08:16.905Z,95.86
2018-11-26T06:13:25.712Z,95.24
2018-11-26T06:18:34.461Z,95.14
2018-11-26T06:23:43.268Z,95.12
2018-11-26T06:28:52.141Z,94.65
2018-11-26T06:34:01.155Z,94.00
2018-11-26T06:39:09.952Z,93.80
2018-11-26T06:44:19.237Z,93.53
2018-11-26T06:49:28.145Z,93.05
2018-11-26T06:54:37.028Z,93.27
2018-11-26T06:59:46.337Z,93.47
2018-11-26T07:04:56.272Z,93.01
2018-11-26T07:10:06.586Z,92.67
2018-11-26T07:15:16.630Z,92.93
2018-11-26T07:20:25.355Z,92.51
2018-11-26T07:25:34.070Z,92.85
2018-11-26T07:30:43.399Z,92.33
2018-11-26T07:35:52.156Z,92.78
2018-11-26T07:41:00.859Z,92.48
2018-11-26T07:46:09.815Z,92.14
2018-11-26T07:51:18.704Z,92.01
2018-11-26T07:56:27.738Z,91.65
2018-11-26T08:01:36.475Z,91.48
2018-11-26T08:06:45.212Z,91.94
2018-11-26T08:11:53.912Z,91.60
2018-11-26T08:17:02.800Z,91.12
2018-11-26T08:22:11.555Z,90.73
2018-11-26T08:27:20.389Z,90.33
2018-11-26T08:32:34.013Z,90.90
2018-11-26T08:37:38.431Z,90.65
2018-11-26T08:42:47.207Z,90.36
2018-11-26T08:47:56.284Z,89.52
2018-11-26T08:53:05.291Z,89.26
2018-11-26T08:58:14.256Z,89.47
2018-11-26T09:03:23.135Z,89.70
2018-11-26T09:08:33.189Z,89.47
2018-11-26T09:13:41.945Z,89.19
2018-11-26T09:18:50.853Z,89.04
2018-11-26T09:23:59.730Z,88.22
2018-11-26T09:29:08.768Z,88.25
2018-11-26T09:34:17.634Z,89.02
2018-11-26T09:39:26.630Z,87.97
2018-11-26T09:44:35.389Z,87.06
2018-11-26T09:49:44.421Z,86.58
2018-11-26T09:54:53.316Z,86.65
2018-11-26T10:00:02.141Z,86.69
2018-11-26T10:05:13.462Z,88.01
2018-11-26T10:10:22.166Z,85.79
2018-11-26T10:15:31.580Z,86.21
2018-11-26T10:20:40.462Z,86.55
2018-11-26T10:25:49.331Z,84.44
2018-11-26T10:30:58.581Z,83.79
2018-11-26T10:36:07.272Z,83.46
2018-11-26T10:41:17.032Z,83.13
2018-11-26T10:46:25.663Z,83.36
2018-11-26T10:51:34.570Z,83.49
2018-11-26T10:56:43.325Z,84.06
2018-11-26T11:01:52.142Z,84.09
2018-11-26T11:07:01.474Z,83.34
2018-11-26T11:12:10.349Z,83.51
2018-11-26T11:17:19.316Z,83.97
2018-11-26T11:22:28.019Z,83.59
2018-11-26T11:27:36.940Z,82.67
2018-11-26T11:32:46.230Z,83.28
2018-11-26T11:37:54.984Z,83.32
2018-11-26T11:43:04.145Z,83.64
2018-11-26T11:48:13.298Z,83.57
2018-11-26T11:53:22.294Z,83.04
2018-11-26T11:58:30.962Z,82.30
2018-11-26T12:03:39.973Z,83.06
2018-11-26T12:08:48.749Z,82.46
2018-11-26T12:13:57.593Z,82.06
2018-11-26T12:19:06.442Z,81.75
2018-11-26T12:24:15.211Z,81.46
2018-11-26T12:29:23.993Z,81.00
2018-11-26T12:34:32.923Z,82.04
2018-11-26T12:39:42.429Z,81.71
2018-11-26T12:44:51.498Z,82.44
2018-11-26T12:50:00.449Z,82.31
2018-11-26T12:55:12.126Z,82.79
2018-11-26T13:00:22.802Z,83.62
2018-11-26T13:05:31.589Z,84.09
2018-11-26T13:10:40.685Z,82.04
2018-11-26T13:15:49.491Z,82.13
2018-11-26T13:20:58.300Z,82.27
2018-11-26T13:26:07.103Z,82.99
2018-11-26T13:31:15.989Z,82.12
2018-11-26T13:41:39.785Z,82.99
2018-11-26T13:46:48.657Z,83.01
2018-11-26T13:51:57.501Z,82.46
2018-11-26T13:57:06.497Z,81.84
2018-11-26T14:02:15.670Z,81.65
2018-11-26T14:07:24.503Z,81.90
2018-11-26T14:12:33.302Z,82.88
2018-11-26T14:17:42.199Z,82.46
2018-11-26T14:22:51.148Z,83.86
2018-11-26T14:27:59.929Z,82.84
2018-11-26T14:33:09.213Z,83.26
2018-11-26T14:38:18.100Z,83.56
2018-11-26T14:43:26.853Z,83.81
2018-11-26T14:48:35.512Z,84.37
2018-11-26T14:53:45.842Z,84.62
2018-11-26T14:58:54.622Z,85.30
2018-11-26T15:04:03.368Z,84.32
2018-11-26T15:09:12.194Z,84.29
2018-11-26T15:14:21.130Z,84.23
2018-11-26T15:19:29.967Z,84.48
2018-11-26T15:24:40.330Z,83.98
2018-11-26T15:29:49.892Z,83.76
2018-11-26T15:34:58.751Z,84.26
2018-11-26T15:40:08.564Z,84.31
2018-11-26T15:45:20.568Z,83.74
2018-11-26T15:50:29.527Z,83.71
2018-11-26T15:55:38.574Z,83.30
2018-11-26T16:00:47.666Z,83.81
2018-11-26T16:05:56.617Z,83.44
2018-11-26T16:11:05.564Z,82.60
2018-11-26T16:16:14.721Z,82.99
2018-11-26T16:21:23.604Z,84.06
2018-11-26T16:26:32.592Z,84.46
2018-11-26T16:31:41.752Z,84.48
2018-11-26T16:36:50.695Z,83.41
2018-11-26T16:41:59.624Z,83.56
2018-11-26T16:47:08.555Z,82.96
2018-11-26T16:52:17.502Z,83.45
2018-11-26T16:57:26.524Z,83.00
2018-11-26T17:02:35.248Z,82.30
2018-11-26T17:07:44.219Z,82.60
2018-11-26T17:12:53.115Z,83.27
2018-11-26T17:18:01.930Z,82.77
2018-11-26T17:23:10.783Z,82.85
2018-11-26T17:28:19.809Z,82.52
2018-11-26T17:33:28.881Z,82.69
2018-11-26T17:38:38.448Z,82.62
2018-11-26T17:43:47.325Z,82.69
2018-11-26T17:48:56.048Z,82.13
2018-11-26T17:54:05.042Z,82.16
2018-11-26T17:59:13.896Z,82.24
2018-11-26T18:04:22.890Z,82.53
2018-11-26T18:09:31.774Z,81.43
2018-11-26T18:14:40.625Z,81.60
2018-11-26T18:19:49.612Z,80.66
2018-11-26T18:24:58.639Z,79.43
2018-11-26T18:31:11.176Z,79.05
2018-11-26T18:36:20.115Z,79.33
2018-11-26T18:41:28.872Z,78.07
2018-11-26T18:46:49.453Z,78.66
2018-11-26T18:51:58.299Z,79.25
2018-11-26T18:57:07.389Z,77.97
2018-11-26T19:02:16.175Z,77.81
2018-11-26T19:07:25.119Z,77.07
2018-11-26T19:12:34.591Z,75.69
2018-11-26T19:17:43.506Z,74.93
2018-11-26T19:22:52.389Z,74.50
2018-11-26T19:28:01.380Z,75.11
2018-11-26T19:33:10.915Z,73.86
2018-11-26T19:38:20.333Z,74.35
2018-11-26T19:43:29.293Z,73.72
2018-11-26T19:48:38.424Z,72.51
2018-11-26T19:53:47.160Z,72.32
2018-11-26T19:58:56.074Z,71.79
2018-11-26T20:04:17.275Z,70.30
2018-11-26T20:09:26.293Z,70.25
2018-11-26T20:14:35.064Z,70.54
2018-11-26T20:19:43.869Z,70.84
2018-11-26T20:24:52.885Z,71.21
2018-11-26T20:30:01.839Z,70.75
2018-11-26T20:35:11.563Z,70.37
2018-11-26T20:40:20.291Z,70.30
2018-11-26T20:45:29.172Z,70.06
2018-11-26T20:50:39.389Z,70.89
2018-11-26T20:55:48.134Z,69.71
2018-11-26T21:00:57.877Z,70.66
2018-11-26T21:06:06.314Z,71.30
2018-11-26T21:11:15.170Z,72.95
2018-11-26T21:16:23.883Z,72.54
2018-11-26T21:21:32.720Z,73.39
2018-11-26T21:26:41.601Z,73.60
2018-11-26T21:31:50.494Z,74.41
2018-11-26T21:36:59.467Z,72.53
2018-11-26T21:42:08.448Z,73.70
2018-11-26T21:47:17.363Z,73.74
2018-11-26T21:52:28.339Z,74.58
2018-11-26T21:57:39.666Z,74.61
2018-11-26T22:02:50.494Z,76.00
2018-11-26T22:08:02.173Z,78.20
2018-11-26T22:13:15.986Z,80.25
2018-11-26T22:18:28.830Z,80.61
2018-11-26T22:23:39.175Z,81.47
2018-11-26T22:28:50.195Z,81.81
2018-11-26T22:34:00.146Z,82.69
2018-11-26T22:39:09.392Z,82.99
2018-11-26T22:44:18.226Z,83.96
2018-11-26T22:49:27.250Z,84.69
2018-11-26T22:54:36.088Z,85.40
2018-11-26T22:59:44.980Z,85.85
2018-11-26T23:04:53.772Z,86.28
2018-11-26T23:10:03.192Z,86.58
2018-11-26T23:15:13.268Z,87.59
2018-11-26T23:20:22.234Z,87.55
2018-11-26T23:25:30.945Z,88.15
2018-11-26T23:30:46.283Z,89.08
2018-11-26T23:35:55.335Z,89.42
2018-11-26T23:41:04.406Z,90.69
2018-11-26T23:46:13.317Z,90.67
2018-11-26T23:51:22.132Z,91.85
2018-11-26T23:56:31.036Z,92.66
